ユジノサハリンスク の空港の天気 - METARとTAF

ホムトヴォ空港(ユジノサハリンスク) ( UHSS / UUS ) - ロシア ユジノサハリンスク
飛行場実況気象(Metar)
観測時間04/27 02:00 VLAT (04/26 16:00 UTC)
風向・風速東北東 1m/s
視程10km以上
天気現象
なし
気温-5℃
湿度93%
気圧1015hPa
METARUHSS 261600Z 07001MPS 9999 NSC M05/M06 Q1015 R01/70D NOSIG RMK QFE760/1014
過去の天気等 Google飛行場航空写真 Wunderground天気予報

過去48時間のMETAR

飛行場予報(TAF)
発表時間: 4/27 00:00 VLAT (4/26 14:00 UTC)
予報対象時間: 27日1時 VLAT ~ 28日7時 VLAT
風向・風速北東 3m/s
視程10km以上
全天の4割程度の積乱雲 雲底高度 910m
27日10時 VLAT ~ 27日12時 VLAT に徐々に
風向・風速南西 3m/s
TAF UHSS 261400Z 2615/2721 04003MPS 9999 SCT030CB
BECMG 2700/2702 22003MPS